createdAt,value
2017-07-31T00:00:11.893Z,74.03
2017-07-31T00:02:39.618Z,74.16
2017-07-31T00:05:07.381Z,73.83
2017-07-31T00:07:35.098Z,73.83
2017-07-31T00:10:02.852Z,72.53
2017-07-31T00:12:30.613Z,71.58
2017-07-31T00:14:58.348Z,69.80
2017-07-31T00:17:26.136Z,69.55
2017-07-31T00:19:54.062Z,69.50
2017-07-31T00:22:21.941Z,69.06
2017-07-31T00:24:49.719Z,68.28
2017-07-31T00:27:17.429Z,68.86
2017-07-31T00:29:45.179Z,68.21
2017-07-31T00:32:12.906Z,67.15
2017-07-31T00:34:41.111Z,66.63
2017-07-31T00:37:08.865Z,66.80
2017-07-31T00:39:36.569Z,66.17
2017-07-31T00:42:04.470Z,66.98
2017-07-31T00:44:32.181Z,67.89
2017-07-31T00:46:59.884Z,67.86
2017-07-31T00:49:27.619Z,66.56
2017-07-31T00:51:55.384Z,66.78
2017-07-31T00:54:23.284Z,66.82
2017-07-31T00:56:51.069Z,67.36
2017-07-31T00:59:19.105Z,66.61
2017-07-31T01:01:46.828Z,65.89
2017-07-31T01:04:14.559Z,66.19
2017-07-31T01:06:42.309Z,65.32
2017-07-31T01:09:10.008Z,65.72
2017-07-31T01:11:37.768Z,66.73
2017-07-31T01:14:05.473Z,67.58
2017-07-31T01:16:33.231Z,67.71
2017-07-31T01:19:00.950Z,67.84
2017-07-31T01:21:28.705Z,67.62
2017-07-31T01:23:56.459Z,66.74
2017-07-31T01:26:24.212Z,66.59
2017-07-31T01:28:52.005Z,66.29
2017-07-31T01:31:19.789Z,67.62
2017-07-31T01:33:47.549Z,66.68
2017-07-31T01:36:16.320Z,66.87
2017-07-31T01:38:44.195Z,66.96
2017-07-31T01:41:11.917Z,66.93
2017-07-31T01:43:39.632Z,66.80
2017-07-31T01:46:07.415Z,66.34
2017-07-31T01:48:35.126Z,66.51
2017-07-31T01:51:03.928Z,67.20
2017-07-31T01:53:31.691Z,67.53
2017-07-31T01:55:59.393Z,67.41
2017-07-31T01:58:27.186Z,67.70
2017-07-31T02:00:55.266Z,67.10
2017-07-31T02:03:23.014Z,66.38
2017-07-31T02:05:51.057Z,67.19
2017-07-31T02:08:18.789Z,67.68
2017-07-31T02:10:46.526Z,67.73
2017-07-31T02:13:14.252Z,67.53
2017-07-31T02:15:41.979Z,68.58
2017-07-31T02:18:09.746Z,68.57
2017-07-31T02:20:37.499Z,68.44
2017-07-31T02:23:05.209Z,68.85
2017-07-31T02:25:32.926Z,68.84
2017-07-31T02:28:00.852Z,69.50
2017-07-31T02:30:28.562Z,69.80
2017-07-31T02:32:56.448Z,70.21
2017-07-31T02:35:24.252Z,70.52
2017-07-31T02:37:52.050Z,71.05
2017-07-31T02:40:19.969Z,71.87
2017-07-31T02:42:47.719Z,72.69
2017-07-31T02:45:15.434Z,72.72
2017-07-31T02:47:43.168Z,72.25
2017-07-31T02:50:10.954Z,72.15
2017-07-31T02:52:38.669Z,72.54
2017-07-31T02:55:06.429Z,72.84
2017-07-31T02:57:34.142Z,72.96
2017-07-31T03:00:01.849Z,73.78
2017-07-31T03:02:29.611Z,73.56
2017-07-31T03:04:57.500Z,73.85
2017-07-31T03:07:25.529Z,73.90
2017-07-31T03:09:53.291Z,74.38
2017-07-31T03:12:21.040Z,74.75
2017-07-31T03:14:48.777Z,75.16
2017-07-31T03:17:16.503Z,75.29
2017-07-31T03:19:44.263Z,75.33
2017-07-31T03:22:12.018Z,75.41
2017-07-31T03:24:39.739Z,75.41
2017-07-31T03:27:07.447Z,75.40
2017-07-31T03:29:36.651Z,76.11
2017-07-31T03:32:04.351Z,76.01
2017-07-31T03:34:32.101Z,76.28
2017-07-31T03:36:59.803Z,76.83
2017-07-31T03:39:27.764Z,76.52
2017-07-31T03:41:55.475Z,76.91
2017-07-31T03:44:23.407Z,77.24
2017-07-31T03:46:51.236Z,77.18
2017-07-31T03:49:18.972Z,77.57
2017-07-31T03:51:46.674Z,77.79
2017-07-31T03:54:14.412Z,77.72
2017-07-31T03:56:42.207Z,77.93
2017-07-31T03:59:09.966Z,78.32
2017-07-31T04:01:37.680Z,78.28
2017-07-31T04:04:05.419Z,78.32
2017-07-31T04:06:33.125Z,78.10
2017-07-31T04:09:01.071Z,78.83
2017-07-31T04:11:28.792Z,78.60
2017-07-31T04:13:56.572Z,79.07
2017-07-31T04:16:24.353Z,78.93
2017-07-31T04:18:52.282Z,79.09
2017-07-31T04:21:20.159Z,79.10
2017-07-31T04:23:47.880Z,79.05
2017-07-31T04:26:15.749Z,79.14
2017-07-31T04:28:43.707Z,79.30
2017-07-31T04:31:11.411Z,79.31
2017-07-31T04:33:51.507Z,79.01
2017-07-31T04:36:19.457Z,79.77
2017-07-31T04:38:47.156Z,79.81
2017-07-31T04:41:14.964Z,79.76
2017-07-31T04:43:42.700Z,79.75
2017-07-31T04:46:11.031Z,79.65
2017-07-31T04:48:38.799Z,79.69
2017-07-31T04:51:06.579Z,79.99
2017-07-31T04:53:34.279Z,79.74
2017-07-31T04:56:02.002Z,79.76
2017-07-31T04:58:29.703Z,79.71
2017-07-31T05:00:58.267Z,79.97
2017-07-31T05:03:26.056Z,79.95
2017-07-31T05:05:53.856Z,79.97
2017-07-31T05:08:21.742Z,80.08
2017-07-31T05:10:49.487Z,80.06
2017-07-31T05:13:17.241Z,80.15
2017-07-31T05:15:44.944Z,80.58
2017-07-31T05:18:12.681Z,80.61
2017-07-31T05:20:40.868Z,79.89
2017-07-31T05:23:08.571Z,79.12
2017-07-31T05:25:36.311Z,79.26
2017-07-31T05:28:04.016Z,78.78
2017-07-31T05:30:31.768Z,78.80
2017-07-31T05:32:59.468Z,78.00
2017-07-31T05:35:27.248Z,78.32
2017-07-31T05:37:55.004Z,77.60
2017-07-31T05:40:22.816Z,77.43
2017-07-31T05:42:50.547Z,76.10
2017-07-31T05:45:18.256Z,75.89
2017-07-31T05:47:45.972Z,76.79
2017-07-31T05:50:13.835Z,76.69
2017-07-31T05:52:41.569Z,75.98
2017-07-31T05:55:09.267Z,75.28
2017-07-31T05:57:37.144Z,72.58
2017-07-31T06:00:04.848Z,74.50
2017-07-31T06:02:32.591Z,74.09
2017-07-31T06:05:00.304Z,72.87
2017-07-31T06:07:28.060Z,72.84
2017-07-31T06:09:56.081Z,72.61
2017-07-31T06:12:23.803Z,70.79
2017-07-31T06:14:51.791Z,68.07
2017-07-31T06:17:19.614Z,65.24
2017-07-31T06:19:47.318Z,63.70
2017-07-31T06:22:15.029Z,64.31
2017-07-31T06:24:42.769Z,64.12
2017-07-31T06:27:10.494Z,62.65
2017-07-31T06:29:38.243Z,62.34
2017-07-31T06:32:05.947Z,61.73
2017-07-31T06:34:33.648Z,60.72
2017-07-31T06:37:01.343Z,61.10
2017-07-31T06:39:29.052Z,60.52
2017-07-31T06:41:56.806Z,59.65
2017-07-31T06:44:24.578Z,60.15
2017-07-31T06:46:52.370Z,60.41
2017-07-31T06:49:20.137Z,58.72
2017-07-31T06:51:48.044Z,59.40
2017-07-31T06:54:15.747Z,58.44
2017-07-31T06:56:43.545Z,58.76
2017-07-31T06:59:11.289Z,57.97
2017-07-31T07:01:38.994Z,58.62
2017-07-31T07:04:06.696Z,57.91
2017-07-31T07:06:34.451Z,57.81
2017-07-31T07:09:02.232Z,57.66
2017-07-31T07:11:29.938Z,58.00
2017-07-31T07:13:57.891Z,57.03
2017-07-31T07:16:25.634Z,57.10
2017-07-31T07:18:53.426Z,57.52
2017-07-31T07:21:21.224Z,58.17
2017-07-31T07:23:48.958Z,57.13
2017-07-31T07:26:16.672Z,56.71
2017-07-31T07:28:44.480Z,57.56
2017-07-31T07:31:12.196Z,58.26
2017-07-31T07:33:39.950Z,57.03
2017-07-31T07:36:07.656Z,57.41
2017-07-31T07:38:35.951Z,56.82
2017-07-31T07:41:03.651Z,56.55
2017-07-31T07:43:31.347Z,56.94
2017-07-31T07:45:59.052Z,56.30
2017-07-31T07:48:26.781Z,56.18
2017-07-31T07:50:54.895Z,56.83
2017-07-31T07:53:22.992Z,56.07
2017-07-31T07:55:51.766Z,57.17
2017-07-31T07:58:19.511Z,56.01
2017-07-31T08:00:47.212Z,55.70
2017-07-31T08:03:14.912Z,57.12
2017-07-31T08:05:42.795Z,54.41
2017-07-31T08:08:10.835Z,55.02
2017-07-31T08:10:38.531Z,55.76
2017-07-31T08:13:06.231Z,55.98
2017-07-31T08:15:33.932Z,56.18
2017-07-31T08:18:01.663Z,55.99
2017-07-31T08:20:29.364Z,55.37
2017-07-31T08:22:57.145Z,55.43
2017-07-31T08:25:25.081Z,55.55
2017-07-31T08:27:53.030Z,55.79
2017-07-31T08:30:24.155Z,55.79
2017-07-31T08:32:52.103Z,56.27
2017-07-31T08:35:20.838Z,55.84
2017-07-31T08:37:48.540Z,56.19
2017-07-31T08:40:16.700Z,55.44
2017-07-31T08:42:44.436Z,56.57
2017-07-31T08:45:12.173Z,57.25
2017-07-31T08:47:40.013Z,56.70
2017-07-31T08:50:07.708Z,56.75
2017-07-31T08:52:35.456Z,55.35
2017-07-31T08:55:03.164Z,56.50
2017-07-31T08:57:30.880Z,56.71
2017-07-31T08:59:58.685Z,56.31
2017-07-31T09:02:29.995Z,56.78
2017-07-31T09:04:57.867Z,56.64
2017-07-31T09:07:25.613Z,56.89
2017-07-31T09:09:53.397Z,56.54
2017-07-31T09:12:21.223Z,56.70
2017-07-31T09:14:49.027Z,55.75
2017-07-31T09:17:16.779Z,56.71
2017-07-31T09:19:44.500Z,56.12
2017-07-31T09:22:12.245Z,55.90
2017-07-31T09:24:39.944Z,56.15
2017-07-31T09:27:07.669Z,56.63
2017-07-31T09:29:35.407Z,56.68
2017-07-31T09:32:03.352Z,56.68
2017-07-31T09:34:31.108Z,56.55
2017-07-31T09:36:58.891Z,56.05
2017-07-31T09:39:26.681Z,56.45
2017-07-31T09:41:54.500Z,56.25
2017-07-31T09:44:22.312Z,56.39
2017-07-31T09:46:50.148Z,56.30
2017-07-31T09:49:17.961Z,56.19
2017-07-31T09:51:45.655Z,56.19
2017-07-31T09:54:13.379Z,56.13
2017-07-31T09:56:42.255Z,56.15
2017-07-31T09:59:09.959Z,56.20
2017-07-31T10:01:37.803Z,56.27
2017-07-31T10:04:05.512Z,56.36
2017-07-31T10:06:33.203Z,56.28
2017-07-31T10:09:00.908Z,55.99
2017-07-31T10:11:28.693Z,55.52
2017-07-31T10:13:56.492Z,55.96
2017-07-31T10:16:24.369Z,55.47
2017-07-31T10:18:52.173Z,55.04
2017-07-31T10:21:19.991Z,53.46
2017-07-31T10:23:47.736Z,56.23
2017-07-31T10:26:15.472Z,54.20
2017-07-31T10:28:43.224Z,55.76
2017-07-31T10:31:10.923Z,55.72
2017-07-31T10:33:38.634Z,56.03
2017-07-31T10:36:06.396Z,55.99
2017-07-31T10:38:34.092Z,54.25
2017-07-31T10:41:01.856Z,55.71
2017-07-31T10:43:29.596Z,55.93
2017-07-31T10:45:57.357Z,54.34
2017-07-31T10:48:25.188Z,55.55
2017-07-31T10:50:52.947Z,55.09
2017-07-31T10:53:20.883Z,55.38
2017-07-31T10:55:48.584Z,53.70
2017-07-31T10:58:16.280Z,55.42
2017-07-31T11:00:44.247Z,55.57
2017-07-31T11:03:12.195Z,55.58
2017-07-31T11:05:40.013Z,55.63
2017-07-31T11:08:07.851Z,54.88
2017-07-31T11:10:35.807Z,55.03
2017-07-31T11:13:03.863Z,55.42
2017-07-31T11:15:31.933Z,55.41
2017-07-31T11:18:00.082Z,55.78
2017-07-31T11:20:28.478Z,55.22
2017-07-31T11:22:56.901Z,55.18
2017-07-31T11:25:25.338Z,55.12
2017-07-31T11:27:53.575Z,55.12
2017-07-31T11:30:21.512Z,54.99
2017-07-31T11:32:49.235Z,55.62
2017-07-31T11:35:17.017Z,54.64
2017-07-31T11:37:44.729Z,54.78
2017-07-31T11:40:12.420Z,55.19
2017-07-31T11:42:40.172Z,55.36
2017-07-31T11:45:07.904Z,55.02
2017-07-31T11:47:35.603Z,53.72
2017-07-31T11:50:04.433Z,54.76
2017-07-31T11:52:32.127Z,54.24
2017-07-31T11:54:59.895Z,54.59
2017-07-31T11:57:27.620Z,54.74
2017-07-31T11:59:55.396Z,51.68
2017-07-31T12:02:23.244Z,54.32
2017-07-31T12:04:51.079Z,53.94
2017-07-31T12:07:18.807Z,53.74
2017-07-31T12:09:46.627Z,54.61
2017-07-31T12:12:14.475Z,54.11
2017-07-31T12:14:42.264Z,54.18
2017-07-31T12:17:09.972Z,52.26
2017-07-31T12:19:37.664Z,54.02
2017-07-31T12:22:05.427Z,53.15
2017-07-31T12:24:33.200Z,53.79
2017-07-31T12:27:00.951Z,50.72
2017-07-31T12:29:28.652Z,52.94
2017-07-31T12:31:56.542Z,52.55
2017-07-31T12:34:24.302Z,52.78
2017-07-31T12:36:52.082Z,52.21
2017-07-31T12:39:19.861Z,53.77
2017-07-31T12:41:47.661Z,53.39
2017-07-31T12:44:15.516Z,53.50
2017-07-31T12:46:43.212Z,53.67
2017-07-31T12:49:10.953Z,53.59
2017-07-31T12:51:38.653Z,53.22
2017-07-31T12:54:06.356Z,53.61
2017-07-31T12:56:34.067Z,53.33
2017-07-31T12:59:01.768Z,53.29
2017-07-31T13:01:29.508Z,53.55
2017-07-31T13:03:57.245Z,53.30
2017-07-31T13:06:25.026Z,52.97
2017-07-31T13:08:52.817Z,53.51
2017-07-31T13:11:20.659Z,53.60
2017-07-31T13:13:49.409Z,53.51
2017-07-31T13:16:17.115Z,53.56
2017-07-31T13:18:44.848Z,53.99
2017-07-31T13:21:13.105Z,53.75
2017-07-31T13:23:40.976Z,50.29
2017-07-31T13:26:08.678Z,52.79
2017-07-31T13:28:36.377Z,53.46
2017-07-31T13:31:04.080Z,53.01
2017-07-31T13:33:31.787Z,53.46
2017-07-31T13:35:59.539Z,53.05
2017-07-31T13:38:27.252Z,53.61
2017-07-31T13:40:55.117Z,53.71
2017-07-31T13:43:22.876Z,53.89
2017-07-31T13:45:50.667Z,53.79
2017-07-31T13:48:18.631Z,53.46
2017-07-31T13:50:46.400Z,53.79
2017-07-31T13:53:14.255Z,53.81
2017-07-31T13:55:42.161Z,53.62
2017-07-31T13:58:09.915Z,53.57
2017-07-31T14:00:37.620Z,51.38
2017-07-31T14:03:05.316Z,52.81
2017-07-31T14:05:33.036Z,53.57
2017-07-31T14:08:00.779Z,53.87
2017-07-31T14:10:28.488Z,53.80
2017-07-31T14:12:56.333Z,53.62
2017-07-31T14:15:24.134Z,52.05
2017-07-31T14:17:52.038Z,53.20
2017-07-31T14:20:21.363Z,53.31
2017-07-31T14:22:49.336Z,53.71
2017-07-31T14:25:17.173Z,52.80
2017-07-31T14:27:45.191Z,52.87
2017-07-31T14:30:13.221Z,53.18
2017-07-31T14:32:40.932Z,53.30
2017-07-31T14:35:08.679Z,50.40
2017-07-31T14:37:36.428Z,53.19
2017-07-31T14:40:04.127Z,53.41
2017-07-31T14:42:31.836Z,53.18
2017-07-31T14:44:59.564Z,53.38
2017-07-31T14:47:27.289Z,53.16
2017-07-31T14:49:55.000Z,53.34
2017-07-31T14:52:22.765Z,52.24
2017-07-31T14:54:50.603Z,52.54
2017-07-31T14:57:18.348Z,51.16
2017-07-31T14:59:46.780Z,52.61
2017-07-31T15:02:14.492Z,52.97
2017-07-31T15:04:42.271Z,52.71
2017-07-31T15:07:09.967Z,52.73
2017-07-31T15:09:37.716Z,52.93
2017-07-31T15:12:06.975Z,52.99
2017-07-31T15:14:34.782Z,52.87
2017-07-31T15:17:02.544Z,52.86
2017-07-31T15:19:30.244Z,52.96
2017-07-31T15:21:57.956Z,52.92
2017-07-31T15:24:25.719Z,52.86
2017-07-31T15:26:53.475Z,52.70
2017-07-31T15:29:21.309Z,52.40
2017-07-31T15:31:49.086Z,52.70
2017-07-31T15:34:16.797Z,52.76
2017-07-31T15:36:44.492Z,52.71
2017-07-31T15:39:12.215Z,52.80
2017-07-31T15:41:40.041Z,50.81
2017-07-31T15:44:07.731Z,52.19
2017-07-31T15:46:35.432Z,50.85
2017-07-31T15:49:03.140Z,52.59
2017-07-31T15:51:30.840Z,52.56
2017-07-31T15:53:58.563Z,52.50
2017-07-31T15:56:26.343Z,52.49
2017-07-31T15:58:54.127Z,52.53
2017-07-31T16:01:21.892Z,52.62
2017-07-31T16:03:49.621Z,52.41
2017-07-31T16:06:17.315Z,52.49
2017-07-31T16:08:45.013Z,52.55
2017-07-31T16:11:12.724Z,52.65
2017-07-31T16:13:40.476Z,52.58
2017-07-31T16:16:08.300Z,52.53
2017-07-31T16:18:35.995Z,52.76
2017-07-31T16:21:03.718Z,52.87
2017-07-31T16:23:31.558Z,53.11
2017-07-31T16:25:59.256Z,53.13
2017-07-31T16:28:27.005Z,53.10
2017-07-31T16:30:54.796Z,53.14
2017-07-31T16:33:22.677Z,53.16
2017-07-31T16:35:50.432Z,53.19
2017-07-31T16:38:35.908Z,53.27
2017-07-31T16:41:03.637Z,53.28
2017-07-31T16:43:46.221Z,53.40
2017-07-31T16:46:19.731Z,53.26
2017-07-31T16:48:47.491Z,53.44
2017-07-31T16:51:15.192Z,53.49
2017-07-31T16:53:42.920Z,53.61
2017-07-31T16:56:10.686Z,53.60
2017-07-31T16:58:38.432Z,53.72
2017-07-31T17:01:06.129Z,53.76
2017-07-31T17:03:33.823Z,53.83
2017-07-31T17:06:01.544Z,53.82
2017-07-31T17:08:29.240Z,53.56
2017-07-31T17:10:56.996Z,53.75
2017-07-31T17:13:24.756Z,53.80
2017-07-31T17:15:52.612Z,53.90
2017-07-31T17:18:20.518Z,53.89
2017-07-31T17:20:48.228Z,53.82
2017-07-31T17:23:15.932Z,53.79
2017-07-31T17:25:43.660Z,53.69
2017-07-31T17:28:13.737Z,53.76
2017-07-31T17:30:41.484Z,53.51
2017-07-31T17:33:09.181Z,53.74
2017-07-31T17:35:36.920Z,53.76
2017-07-31T17:38:05.943Z,53.75
2017-07-31T17:40:33.670Z,53.12
2017-07-31T17:43:02.639Z,52.48
2017-07-31T17:45:30.347Z,52.35
2017-07-31T17:47:58.120Z,53.07
2017-07-31T17:50:25.876Z,53.47
2017-07-31T17:52:53.619Z,53.73
2017-07-31T17:55:21.345Z,53.98
2017-07-31T17:57:49.047Z,54.14
2017-07-31T18:00:16.820Z,54.16
2017-07-31T18:02:44.517Z,54.33
2017-07-31T18:05:12.245Z,54.43
2017-07-31T18:07:39.996Z,54.54
2017-07-31T18:10:07.739Z,54.66
2017-07-31T18:12:35.439Z,54.68
2017-07-31T18:15:03.148Z,54.74
2017-07-31T18:17:30.847Z,54.69
2017-07-31T18:19:58.548Z,54.73
2017-07-31T18:22:26.257Z,56.10
2017-07-31T18:24:54.085Z,54.86
2017-07-31T18:27:21.829Z,54.91
2017-07-31T18:29:49.540Z,54.86
2017-07-31T18:32:17.292Z,56.42
2017-07-31T18:34:44.987Z,55.02
2017-07-31T18:37:12.732Z,55.05
2017-07-31T18:39:40.559Z,55.03
2017-07-31T18:42:08.327Z,55.15
2017-07-31T18:44:36.048Z,55.21
2017-07-31T18:47:03.745Z,55.30
2017-07-31T18:49:31.448Z,55.15
2017-07-31T18:51:59.186Z,55.18
2017-07-31T18:54:27.008Z,57.50
2017-07-31T18:56:54.715Z,57.75
2017-07-31T18:59:22.464Z,55.70
2017-07-31T19:01:50.221Z,57.76
2017-07-31T19:04:17.928Z,59.22
2017-07-31T19:06:45.789Z,59.18
2017-07-31T19:09:13.900Z,60.29
2017-07-31T19:11:41.758Z,61.24
2017-07-31T19:14:09.772Z,61.81
2017-07-31T19:16:37.467Z,63.09
2017-07-31T19:19:05.160Z,63.84
2017-07-31T19:21:32.860Z,64.94
2017-07-31T19:24:00.555Z,64.95
2017-07-31T19:26:28.255Z,65.06
2017-07-31T19:28:56.039Z,65.64
2017-07-31T19:31:23.760Z,66.23
2017-07-31T19:33:51.508Z,66.35
2017-07-31T19:36:19.255Z,67.45
2017-07-31T19:38:47.001Z,67.39
2017-07-31T19:41:14.771Z,68.38
2017-07-31T19:43:42.484Z,68.31
2017-07-31T19:46:10.202Z,68.63
2017-07-31T19:48:37.911Z,68.55
2017-07-31T19:51:05.611Z,69.51
2017-07-31T19:53:33.307Z,69.59
2017-07-31T19:56:01.009Z,69.56
2017-07-31T19:58:28.767Z,69.80
2017-07-31T20:00:56.514Z,70.21
2017-07-31T20:03:24.274Z,70.53
2017-07-31T20:05:52.096Z,70.65
2017-07-31T20:08:19.856Z,71.06
2017-07-31T20:10:47.775Z,71.01
2017-07-31T20:13:15.532Z,71.18
2017-07-31T20:15:43.245Z,70.86
2017-07-31T20:18:11.003Z,71.48
2017-07-31T20:20:38.700Z,71.84
2017-07-31T20:23:06.613Z,71.81
2017-07-31T20:25:34.307Z,72.43
2017-07-31T20:28:02.016Z,72.22
2017-07-31T20:30:29.721Z,72.63
2017-07-31T20:32:57.469Z,72.95
2017-07-31T20:35:25.236Z,72.86
2017-07-31T20:37:52.957Z,73.62
2017-07-31T20:40:20.892Z,74.22
2017-07-31T20:42:48.675Z,74.39
2017-07-31T20:45:16.371Z,73.96
2017-07-31T20:47:44.325Z,74.38
2017-07-31T20:50:12.043Z,73.68
2017-07-31T20:52:39.764Z,73.87
2017-07-31T20:55:07.464Z,74.26
2017-07-31T20:57:35.840Z,74.92
2017-07-31T21:00:03.880Z,75.25
2017-07-31T21:02:31.619Z,74.69
2017-07-31T21:04:59.648Z,75.27
2017-07-31T21:07:27.353Z,74.51
2017-07-31T21:09:56.740Z,75.10
2017-07-31T21:12:24.517Z,75.57
2017-07-31T21:14:52.324Z,75.33
2017-07-31T21:17:20.127Z,75.35
2017-07-31T21:19:47.833Z,75.44
2017-07-31T21:22:15.561Z,75.66
2017-07-31T21:24:43.296Z,75.67
2017-07-31T21:27:11.061Z,75.76
2017-07-31T21:29:38.760Z,75.33
2017-07-31T21:32:06.508Z,75.87
2017-07-31T21:34:34.214Z,75.91
2017-07-31T21:37:02.023Z,76.47
2017-07-31T21:39:29.786Z,77.12
2017-07-31T21:41:57.579Z,78.31
2017-07-31T21:44:26.375Z,79.30
2017-07-31T21:46:54.147Z,81.15
2017-07-31T21:49:21.920Z,82.04
2017-07-31T21:51:49.660Z,83.31
2017-07-31T21:54:31.087Z,81.52
2017-07-31T21:56:58.836Z,84.34
2017-07-31T21:59:26.791Z,84.55
2017-07-31T22:01:54.726Z,85.01
2017-07-31T22:04:22.488Z,85.72
2017-07-31T22:06:50.282Z,82.04
